Главная страница
METAR-TAF:

METAR-TAF

Аэропорты :

Фьюмичино

Рим-Фьюмичино, Италия

широта: 41-48N, долгота: 012-14E, высота над уровнем моря: 2 м

Текущие метеонаблюдения

Эта сводка был подготовлена 37 минут назад, в 12:20 UTC
Ветер 4 Узел от западный, изменяющийся между юго-западный и северо-западный
Температура 15°C
Влажность 67%
Давление 1020 hPa
Видимость 10 км и более
небольшая облачность на высоте 2000 фута

METAR: LIRF 271220Z 27004KT 230V320 9999 FEW020 15/09 Q1020 NOSIG

Время: 13:57 (12:57 UTC)

Прогноз

Эта сводка был подготовлена 1 час и 57 минут назад, в 11:00 UTC
Прогноз действительный с 27-го 12 UTC до 28-го 18 UTC
Ветер 5 Узел переменных направлений
Видимость 10 км и более
Нет облачности ниже 1500 м, и нет кучево-дождевой облачности
изменения
С 27-го 20 UTC до 27-го 22 UTC
Ветер 12 Узел от юго-западный
временами
С 28-го 08 UTC до 28-го 12 UTC
дождь

TAF: LIRF 271100Z 2712/2818 VRB05KT CAVOK BECMG 2720/2722 22012KT TEMPO 2808/2812 RA

Метеонаблюдения и прогнозы для более 4000 аэропортов (сводки METAR и TAF).

Имеющиеся станции представлены на карте желтыми и красными точками.

Чтобы увидеть название станции, наведите на нее мышь.

Затем щелкните, чтобы увидеть метеонаблюдения и метеопрогнозы.

Управление картой: чтобы увеличить масштаб, щелкните зеленые кнопки с черным крестиком; чтобы уменьшить масштаб, щелкните зеленую кнопку с тире; для просмотра соседних карт щелкайте зеленые стрелки.


METAR-TAF: